Time;durP1;ratioP1;P1;durP2;ratioP2;P2;SDS_P1;SDS_P2;PMS_P1;PMS_P2;Temp;Humidity;BMP_temperature;BMP_pressure;BME280_temperature;BME280_humidity;BME280_pressure;Samples;Min_cycle;Max_cycle;Signal;HPM_P1;HPM_P2
2021/04/13 00:00:34;;;;;;;16.77;12.00;;;;;;;6.15;78.22;102623.75;4935015;29;20048;-73
2021/04/13 00:03:07;;;;;;;19.38;13.77;;;;;;;6.23;77.63;102610.53;4965107;28;20059;-72
2021/04/13 00:05:47;;;;;;;15.40;12.23;;;;;;;6.07;78.01;102611.25;4974809;28;20071;-69
2021/04/13 00:08:18;;;;;;;17.95;12.23;;;;;;;6.26;76.41;102610.06;4972592;28;20422;-67
2021/04/13 00:15:11;;;;;;;14.68;10.63;;;;;;;5.91;75.94;102613.88;4972748;28;20054;-68
2021/04/13 00:17:40;;;;;;;13.23;10.63;;;;;;;6.10;74.88;102607.22;5007375;28;20060;-69
2021/04/13 00:20:30;;;;;;;15.90;10.82;;;;;;;6.07;74.82;102610.41;5052652;28;20044;-69
2021/04/13 00:22:57;;;;;;;14.50;11.20;;;;;;;5.99;75.34;102608.03;5053279;28;20072;-66
2021/04/13 00:29:45;;;;;;;14.23;10.48;;;;;;;6.13;73.63;102613.03;5053158;28;19928;-68
2021/04/13 00:32:33;;;;;;;14.13;10.07;;;;;;;6.20;73.66;102612.91;5060820;28;20487;-72
2021/04/13 00:37:51;;;;;;;14.68;11.00;;;;;;;5.51;73.40;102606.25;5038960;28;20045;-67
2021/04/13 00:44:54;;;;;;;16.88;12.30;;;;;;;5.61;74.99;102622.91;5052789;28;20292;-68
2021/04/13 00:47:31;;;;;;;19.08;13.57;;;;;;;5.29;76.25;102620.69;5019041;28;20041;-68
2021/04/13 00:50:07;;;;;;;19.33;14.05;;;;;;;5.15;77.29;102617.31;5034627;28;20057;-69
2021/04/13 00:52:44;;;;;;;19.20;14.32;;;;;;;5.25;77.21;102619.47;5018928;28;20044;-68
2021/04/13 00:55:40;;;;;;;20.25;15.75;;;;;;;5.50;76.56;102625.63;5037096;28;20056;-65
2021/04/13 00:58:27;;;;;;;21.05;15.45;;;;;;;5.49;75.48;102615.78;5018970;28;20052;-69
2021/04/13 01:01:22;;;;;;;22.95;15.88;;;;;;;5.53;75.33;102627.88;5034611;28;20052;-68
2021/04/13 01:04:04;;;;;;;23.83;17.27;;;;;;;5.39;75.49;102627.25;5033897;28;20067;-69
2021/04/13 01:06:37;;;;;;;29.00;19.48;;;;;;;5.33;76.02;102621.91;5035596;28;20060;-68
2021/04/13 01:13:45;;;;;;;25.80;19.48;;;;;;;5.02;78.20;102616.66;5053037;28;20395;-65
2021/04/13 01:16:13;;;;;;;29.48;20.45;;;;;;;4.95;78.11;102615.94;5036271;28;20045;-65
2021/04/13 01:18:42;;;;;;;28.92;21.05;;;;;;;4.99;77.91;102611.66;5034358;28;20053;-72
2021/04/13 01:21:22;;;;;;;26.42;20.85;;;;;;;5.08;77.93;102613.00;5038125;28;20041;-69
2021/04/13 01:23:57;;;;;;;25.33;19.90;;;;;;;5.21;77.45;102618.28;5056104;28;20052;-69
2021/04/13 01:26:24;;;;;;;30.00;21.75;;;;;;;5.16;77.06;102620.91;5035508;28;20049;-70
2021/04/13 01:28:52;;;;;;;26.92;20.80;;;;;;;5.02;77.12;102622.94;5034137;28;20052;-67
2021/04/13 01:31:43;;;;;;;30.23;21.45;;;;;;;5.22;77.14;102612.59;5034685;28;20080;-65
2021/04/13 01:34:21;;;;;;;32.97;22.98;;;;;;;5.30;76.07;102617.72;5052310;28;20053;-67
2021/04/13 01:37:05;;;;;;;28.13;21.88;;;;;;;5.28;76.06;102614.38;5035592;28;20048;-67
2021/04/13 01:44:02;;;;;;;30.77;21.38;;;;;;;5.26;75.67;102621.16;5051995;28;20155;-70
2021/04/13 01:46:29;;;;;;;30.38;21.38;;;;;;;5.04;76.51;102637.22;5034407;28;20049;-68
2021/04/13 01:48:56;;;;;;;32.63;22.77;;;;;;;5.02;77.23;102619.41;5033964;28;20076;-72
2021/04/13 01:51:23;;;;;;;32.58;24.40;;;;;;;4.79;77.82;102619.28;5033633;28;20407;-72
2021/04/13 01:53:51;;;;;;;30.90;24.05;;;;;;;4.90;77.50;102626.72;5049237;28;20125;-69
2021/04/13 02:01:14;;;;;;;29.77;22.63;;;;;;;4.75;77.67;102624.34;5056184;28;20045;-73
2021/04/13 02:04:25;;;;;;;29.80;21.52;;;;;;;5.01;77.00;102625.91;5055601;28;20167;-73
2021/04/13 02:07:04;;;;;;;29.10;22.40;;;;;;;5.12;76.40;102625.97;5038253;28;20041;-72
2021/04/13 02:13:53;;;;;;;32.45;22.42;;;;;;;5.11;76.34;102637.94;5055918;28;20048;-67
2021/04/13 02:16:42;;;;;;;31.15;23.00;;;;;;;5.25;75.52;102644.06;5055779;28;20049;-73
2021/04/13 02:19:28;;;;;;;29.08;22.15;;;;;;;5.13;76.21;102645.91;5062639;28;20052;-72
2021/04/13 02:22:08;;;;;;;31.65;23.15;;;;;;;5.37;75.37;102645.78;5038267;28;20063;-69
2021/04/13 02:24:37;;;;;;;32.22;23.23;;;;;;;5.31;74.80;102651.34;5037681;28;20057;-72
2021/04/13 02:31:47;;;;;;;33.40;24.90;;;;;;;4.86;76.15;102644.59;5055003;28;20416;-67
2021/04/13 02:34:40;;;;;;;32.88;25.20;;;;;;;4.66;76.99;102643.97;5037919;28;20046;-70
2021/04/13 02:37:12;;;;;;;33.85;24.50;;;;;;;4.78;77.70;102645.72;5036836;28;20052;-68
2021/04/13 02:39:41;;;;;;;35.10;26.25;;;;;;;4.72;77.33;102649.38;5020402;28;20049;-71
2021/04/13 02:46:34;;;;;;;34.95;25.38;;;;;;;4.82;76.96;102646.94;5055613;28;20395;-70
2021/04/13 02:49:05;;;;;;;35.83;26.73;;;;;;;4.77;76.85;102648.69;5036840;28;20053;-71
2021/04/13 02:51:34;;;;;;;37.10;27.75;;;;;;;4.50;77.84;102643.53;5037309;28;20060;-71
2021/04/13 02:54:06;;;;;;;37.25;27.23;;;;;;;4.86;77.02;102644.59;5037561;28;20074;-70
2021/04/13 02:56:35;;;;;;;35.15;26.63;;;;;;;4.97;76.48;102654.75;5004112;28;20053;-67
2021/04/13 02:59:12;;;;;;;33.92;25.88;;;;;;;4.74;76.98;102658.19;5055100;28;20041;-73
2021/04/13 03:01:47;;;;;;;37.88;27.92;;;;;;;4.51;77.53;102647.94;5056013;28;20048;-73
2021/04/13 03:04:16;;;;;;;41.05;30.10;;;;;;;4.53;78.36;102658.63;5055957;28;20390;-68
2021/04/13 03:06:49;;;;;;;37.47;28.35;;;;;;;4.35;78.36;102653.16;5055418;28;20064;-69
2021/04/13 03:09:36;;;;;;;40.47;29.30;;;;;;;4.37;78.61;102654.59;5040894;28;20037;-69
2021/04/13 03:12:22;;;;;;;41.63;28.85;;;;;;;4.58;77.68;102656.88;5039298;28;20048;-70
2021/04/13 03:14:55;;;;;;;40.08;28.77;;;;;;;4.72;77.19;102664.94;5037789;28;20523;-68
2021/04/13 03:17:29;;;;;;;40.47;29.85;;;;;;;4.72;76.47;102663.03;5037128;28;20049;-72
2021/04/13 03:20:08;;;;;;;42.65;30.55;;;;;;;4.50;77.01;102662.63;5038868;28;20397;-73
2021/04/13 03:22:35;;;;;;;;;;;;;;;4.55;76.92;102660.06;5037213;28;20056;-68
2021/04/13 03:25:04;;;;;;;40.90;29.02;;;;;;;4.58;76.90;102662.31;5035734;28;19928;-69
2021/04/13 03:27:34;;;;;;;42.65;30.40;;;;;;;4.47;76.95;102657.63;5036756;28;20045;-74
2021/04/13 03:30:21;;;;;;;42.25;30.40;;;;;;;4.37;77.78;102651.03;5035783;28;20045;-67
2021/04/13 03:32:53;;;;;;;41.55;30.23;;;;;;;4.59;77.57;102647.63;5035767;28;20049;-66
2021/04/13 03:35:25;;;;;;;41.92;29.65;;;;;;;4.76;76.89;102657.97;5037023;28;20361;-69
2021/04/13 03:37:54;;;;;;;41.03;30.20;;;;;;;4.52;77.03;102660.53;5035929;28;20053;-68
2021/04/13 03:44:16;;;;;;;42.22;29.77;;;;;;;4.35;77.45;102664.06;5054267;28;20041;-69
2021/04/13 03:46:43;;;;;;;40.55;29.30;;;;;;;4.42;77.28;102662.94;5054471;28;20053;-70
2021/04/13 03:49:40;;;;;;;39.10;28.92;;;;;;;4.23;77.62;102661.25;5053132;28;20060;-67
2021/04/13 03:52:27;;;;;;;41.15;28.13;;;;;;;4.37;76.73;102659.22;5012031;28;20421;-69
2021/04/13 03:54:54;;;;;;;42.35;27.45;;;;;;;4.50;76.09;102665.38;4995545;28;20046;-72
2021/04/13 04:01:48;;;;;;;37.53;27.13;;;;;;;4.22;76.24;102665.00;5011580;28;20053;-68
2021/04/13 04:04:24;;;;;;;40.13;27.52;;;;;;;4.23;76.22;102663.13;4995664;28;20061;-70
2021/04/13 04:06:55;;;;;;;44.20;27.52;;;;;;;4.39;76.08;102671.56;5011425;28;20397;-68
2021/04/13 04:09:28;;;;;;;36.75;26.58;;;;;;;4.35;75.69;102664.91;5011101;28;20050;-66
2021/04/13 04:11:58;;;;;;;39.53;26.63;;;;;;;4.75;74.44;102661.72;5011620;28;20068;-67
2021/04/13 04:14:28;;;;;;;38.45;26.75;;;;;;;4.56;74.34;102667.19;5011637;28;20385;-69
2021/04/13 04:17:06;;;;;;;42.38;27.40;;;;;;;4.54;73.76;102663.03;5009564;28;20054;-70
2021/04/13 04:19:33;;;;;;;40.85;26.85;;;;;;;4.36;74.17;102663.81;5011231;28;20049;-69
2021/04/13 04:22:10;;;;;;;34.83;25.75;;;;;;;4.37;74.26;102657.31;4995885;28;20056;-70
2021/04/13 04:24:42;;;;;;;36.53;25.48;;;;;;;4.50;73.56;102661.78;5011951;28;20045;-67
2021/04/13 04:27:34;;;;;;;35.65;24.75;;;;;;;4.30;73.37;102662.00;5013120;28;20042;-68
2021/04/13 04:30:24;;;;;;;40.63;26.63;;;;;;;4.49;73.66;102677.34;5048944;28;20060;-71
2021/04/13 04:32:52;;;;;;;35.95;24.58;;;;;;;4.20;73.22;102664.41;5032229;28;20072;-68
2021/04/13 04:35:44;;;;;;;41.78;26.30;;;;;;;4.35;72.81;102666.78;5052772;28;20060;-69
2021/04/13 04:38:11;;;;;;;36.08;25.38;;;;;;;4.32;72.99;102665.31;5052642;28;20372;-72
2021/04/13 04:40:50;;;;;;;38.58;25.98;;;;;;;4.53;72.66;102675.00;5052696;28;20488;-66
2021/04/13 04:43:20;;;;;;;36.88;24.27;;;;;;;4.45;72.44;102675.28;5053007;28;20044;-68
2021/04/13 04:45:51;;;;;;;35.30;25.40;;;;;;;4.45;71.89;102681.56;5036037;28;20044;-68
2021/04/13 04:48:32;;;;;;;36.42;25.83;;;;;;;4.65;71.23;102684.09;5052295;28;20053;-71
2021/04/13 04:51:03;;;;;;;37.78;24.80;;;;;;;4.62;70.75;102681.00;5052848;28;20049;-68
2021/04/13 04:53:31;;;;;;;35.95;24.63;;;;;;;4.43;71.21;102686.41;5052144;28;20361;-65
2021/04/13 05:00:10;;;;;;;38.93;23.63;;;;;;;4.04;71.82;102691.41;5052768;28;20056;-69
2021/04/13 05:02:37;;;;;;;35.47;25.05;;;;;;;4.17;71.51;102689.41;5017520;28;20049;-67
2021/04/13 05:05:23;;;;;;;35.08;24.15;;;;;;;4.48;70.78;102694.75;5058757;28;20048;-71
2021/04/13 05:07:52;;;;;;;34.92;24.70;;;;;;;4.53;70.47;102691.38;5052052;28;20052;-69
2021/04/13 05:10:19;;;;;;;36.08;24.42;;;;;;;4.65;69.29;102695.03;5051994;28;20480;-67
2021/04/13 05:17:13;;;;;;;34.58;23.35;;;;;;;4.64;69.06;102700.72;5052588;28;20380;-69
2021/04/13 05:19:41;;;;;;;35.17;23.67;;;;;;;4.58;69.00;102706.00;5034766;28;20491;-66
2021/04/13 05:22:09;;;;;;;34.83;24.17;;;;;;;4.60;68.73;102712.06;5052579;28;20171;-69
2021/04/13 05:24:44;;;;;;;34.63;24.48;;;;;;;4.72;67.97;102711.31;5035387;28;20061;-69
2021/04/13 05:27:11;;;;;;;35.20;24.52;;;;;;;4.64;68.14;102715.16;5052194;28;20045;-71
2021/04/13 05:29:38;;;;;;;35.17;23.75;;;;;;;4.53;68.03;102716.75;5052530;28;20072;-69
2021/04/13 05:32:05;;;;;;;35.92;24.88;;;;;;;4.37;68.73;102719.22;5034543;28;20049;-73
2021/04/13 05:34:33;;;;;;;33.35;23.98;;;;;;;4.20;68.93;102726.31;5051583;28;20056;-74
2021/04/13 05:36:59;;;;;;;33.17;23.67;;;;;;;4.27;68.55;102736.09;5052050;28;20472;-67
2021/04/13 05:39:45;;;;;;;34.30;23.80;;;;;;;4.09;68.50;102727.88;5038012;28;20044;-72
2021/04/13 05:42:19;;;;;;;34.78;24.52;;;;;;;4.29;68.67;102728.53;5033814;28;20049;-74
2021/04/13 05:44:46;;;;;;;33.45;23.95;;;;;;;4.38;67.99;102727.19;5034838;28;20049;-71
2021/04/13 05:47:14;;;;;;;36.50;24.02;;;;;;;4.17;68.72;102735.75;5050907;28;20495;-72
2021/04/13 05:49:41;;;;;;;36.33;24.92;;;;;;;4.19;69.08;102736.38;5053371;28;20049;-71
2021/04/13 05:52:08;;;;;;;32.22;22.92;;;;;;;4.20;68.36;102742.66;5053109;28;20064;-69
2021/04/13 05:54:35;;;;;;;34.80;24.08;;;;;;;4.25;68.06;102743.66;5053594;28;20056;-68
2021/04/13 05:57:13;;;;;;;34.20;23.50;;;;;;;4.47;67.93;102735.91;5052834;28;20060;-67
2021/04/13 05:59:43;;;;;;;41.38;24.60;;;;;;;4.57;67.43;102755.34;5053551;28;20049;-71
2021/04/13 06:02:16;;;;;;;34.95;23.60;;;;;;;4.34;68.02;102750.50;5035503;28;20064;-70
2021/04/13 06:04:45;;;;;;;38.25;26.00;;;;;;;4.56;67.50;102764.59;5053484;28;20041;-68
2021/04/13 06:07:11;;;;;;;36.38;24.65;;;;;;;4.24;67.39;102754.78;5054204;28;20507;-68
2021/04/13 06:09:39;;;;;;;34.53;23.65;;;;;;;4.38;66.97;102768.09;5052569;28;20049;-71
2021/04/13 06:12:06;;;;;;;36.20;24.15;;;;;;;4.41;66.98;102762.19;5033159;28;20530;-69
2021/04/13 06:14:41;;;;;;;32.73;23.60;;;;;;;4.56;66.21;102772.78;5018239;28;20060;-72
2021/04/13 06:17:12;;;;;;;37.35;25.38;;;;;;;4.59;66.22;102766.88;5051675;28;20291;-72
2021/04/13 06:19:40;;;;;;;40.30;24.80;;;;;;;4.29;66.72;102774.03;5034970;28;20053;-68
2021/04/13 06:22:10;;;;;;;37.83;25.73;;;;;;;4.24;66.62;102766.53;5052235;28;20424;-75
2021/04/13 06:24:40;;;;;;;33.10;23.80;;;;;;;4.42;66.97;102774.78;5034501;28;20052;-74
2021/04/13 06:27:11;;;;;;;34.72;24.13;;;;;;;4.55;66.86;102782.00;5052000;28;20397;-71
2021/04/13 06:29:38;;;;;;;33.83;24.05;;;;;;;4.92;66.52;102778.31;5050358;28;20053;-69
2021/04/13 06:32:07;;;;;;;34.05;23.23;;;;;;;4.97;65.79;102789.38;5052342;28;20049;-70
2021/04/13 06:34:35;;;;;;;37.53;24.13;;;;;;;5.17;64.98;102780.97;5033720;28;20048;-69
2021/04/13 06:37:07;;;;;;;37.33;23.63;;;;;;;4.83;64.34;102784.28;5017414;28;20045;-67
2021/04/13 06:39:36;;;;;;;36.70;22.98;;;;;;;5.08;65.60;102790.53;5051144;28;20044;-67
2021/04/13 06:46:39;;;;;;;34.75;21.17;;;;;;;4.84;63.87;102802.34;5053104;28;20052;-66
2021/04/13 06:49:08;;;;;;;;;;;;;;;4.71;63.62;102813.41;5055805;28;20049;-68
2021/04/13 06:51:45;;;;;;;35.78;21.02;;;;;;;4.94;63.88;102802.66;5020751;28;19920;-68
2021/04/13 06:54:36;;;;;;;32.28;21.10;;;;;;;4.87;63.17;102793.69;5052973;28;20048;-67
2021/04/13 06:57:22;;;;;;;33.92;20.10;;;;;;;4.95;62.77;102798.88;5055117;28;20049;-69
2021/04/13 07:04:38;;;;;;;29.00;20.10;;;;;;;5.57;62.43;102812.22;5055031;28;20499;-74
2021/04/13 07:07:10;;;;;;;31.30;19.90;;;;;;;5.27;60.04;102809.44;5037292;28;20060;-68
2021/04/13 07:09:56;;;;;;;31.65;19.42;;;;;;;5.49;60.15;102812.56;5037345;28;20045;-66
2021/04/13 07:12:28;;;;;;;28.92;18.45;;;;;;;5.49;58.49;102810.63;5037163;28;20049;-71
2021/04/13 07:15:14;;;;;;;27.73;17.73;;;;;;;5.12;58.06;102809.00;5053597;28;20053;-66
2021/04/13 07:17:53;;;;;;;33.05;19.80;;;;;;;5.00;58.33;102801.75;5019786;28;20093;-70
2021/04/13 07:20:47;;;;;;;29.48;19.38;;;;;;;5.18;58.25;102805.34;5039370;28;20472;-72
2021/04/13 07:23:28;;;;;;;26.38;18.45;;;;;;;5.27;58.51;102805.84;5036059;28;20060;-66
2021/04/13 07:25:58;;;;;;;25.52;18.60;;;;;;;5.18;57.99;102807.22;5036023;28;20052;-70
2021/04/13 07:32:58;;;;;;;26.48;17.13;;;;;;;5.02;56.69;102816.03;5032369;28;20049;-74
2021/04/13 07:35:42;;;;;;;26.65;16.73;;;;;;;5.08;56.00;102818.69;5019426;28;20050;-68
2021/04/13 07:38:26;;;;;;;25.23;16.73;;;;;;;5.14;56.38;102815.06;5017566;28;20049;-67
2021/04/13 07:41:34;;;;;;;25.85;16.15;;;;;;;5.20;55.50;102803.22;5002020;28;20420;-67
2021/04/13 07:48:25;;;;;;;23.17;15.13;;;;;;;5.23;54.09;102810.94;5034351;28;20049;-70
2021/04/13 07:51:13;;;;;;;23.63;13.57;;;;;;;5.40;52.87;102813.91;5017182;28;20045;-69
2021/04/13 07:54:02;;;;;;;25.92;14.48;;;;;;;5.52;52.02;102809.34;5036607;28;20080;-73
2021/04/13 07:56:40;;;;;;;19.88;13.10;;;;;;;5.65;52.10;102820.13;5016376;28;20056;-73
2021/04/13 08:03:31;;;;;;;19.50;11.05;;;;;;;5.73;49.27;102828.03;5034252;28;20037;-78
2021/04/13 08:06:27;;;;;;;15.35;10.35;;;;;;;5.74;49.44;102814.13;5033790;28;20388;-77
2021/04/13 08:09:25;;;;;;;17.13;10.73;;;;;;;5.87;49.23;102820.50;5033443;28;20045;-76
2021/04/13 08:12:01;;;;;;;17.25;10.50;;;;;;;5.62;49.29;102810.50;5013847;28;20050;-74
2021/04/13 08:18:53;;;;;;;18.77;11.05;;;;;;;5.92;49.57;102816.00;5029273;28;20084;-74
2021/04/13 08:21:20;;;;;;;17.27;11.27;;;;;;;5.95;48.96;102809.22;5032590;28;20108;-75
2021/04/13 08:23:49;;;;;;;18.92;11.23;;;;;;;5.85;49.00;102801.59;5032408;28;20045;-76
2021/04/13 08:26:31;;;;;;;19.05;11.00;;;;;;;6.00;49.25;102803.91;5034024;28;20041;-75
2021/04/13 08:29:42;;;;;;;16.02;10.45;;;;;;;6.15;48.40;102804.31;5019599;28;20044;-74
2021/04/13 08:35:33;;;;;;;17.50;10.85;;;;;;;6.25;48.72;102805.41;5039639;28;20562;-73
2021/04/13 08:38:18;;;;;;;16.05;10.27;;;;;;;6.28;47.99;102809.56;5052902;28;20060;-69
2021/04/13 08:41:10;;;;;;;18.15;10.40;;;;;;;6.29;48.01;102806.63;5053474;28;20072;-72
2021/04/13 08:48:24;;;;;;;14.63;10.10;;;;;;;6.55;46.86;102806.22;5053236;28;20049;-72
2021/04/13 08:51:08;;;;;;;15.05;9.63;;;;;;;6.26;46.74;102801.59;5035734;28;20045;-72
2021/04/13 08:53:42;;;;;;;15.63;9.50;;;;;;;6.57;46.78;102817.72;5016162;28;20492;-73
2021/04/13 08:56:22;;;;;;;14.07;9.30;;;;;;;6.11;47.24;102805.84;5053026;28;20048;-76
2021/04/13 09:03:21;;;;;;;13.20;9.50;;;;;;;6.60;44.11;102806.31;5052922;28;20374;-75
2021/04/13 09:06:08;;;;;;;12.05;8.80;;;;;;;6.64;43.80;102809.44;5052884;28;20063;-75
2021/04/13 09:09:04;;;;;;;13.80;8.20;;;;;;;6.53;43.01;102802.03;5033801;28;20048;-73
2021/04/13 09:11:34;;;;;;;14.05;8.95;;;;;;;6.55;43.71;102814.41;5030686;28;20053;-70
2021/04/13 09:14:26;;;;;;;18.35;10.30;;;;;;;6.58;43.97;102811.19;5052552;28;20047;-70
2021/04/13 09:17:17;;;;;;;16.40;9.70;;;;;;;6.71;44.25;102815.63;5053603;28;20044;-72
2021/04/13 09:20:04;;;;;;;18.15;10.25;;;;;;;6.96;44.04;102813.47;5034292;28;20408;-71
2021/04/13 09:22:36;;;;;;;16.73;10.77;;;;;;;6.80;44.38;102808.69;5050057;28;20099;-72
2021/04/13 09:25:08;;;;;;;17.02;11.73;;;;;;;6.81;44.97;102813.97;5052287;28;20484;-75
2021/04/13 09:27:41;;;;;;;16.40;10.50;;;;;;;6.61;43.78;102813.47;5017882;28;20056;-72
2021/04/13 09:30:17;;;;;;;16.17;9.43;;;;;;;6.58;44.34;102803.00;5035149;28;20056;-77
2021/04/13 09:32:48;;;;;;;17.33;10.02;;;;;;;6.79;44.21;102823.47;5052618;28;20053;-74
2021/04/13 09:35:30;;;;;;;16.05;9.77;;;;;;;6.76;43.67;102802.88;5052401;28;20057;-74
2021/04/13 09:38:17;;;;;;;14.70;8.30;;;;;;;6.70;43.78;102816.69;5017730;28;20048;-74
2021/04/13 09:41:27;;;;;;;16.52;9.38;;;;;;;6.64;44.64;102802.03;5035391;28;20491;-75
2021/04/13 09:48:07;;;;;;;14.05;9.32;;;;;;;7.05;44.09;102803.00;5033920;28;20045;-72
2021/04/13 09:50:39;;;;;;;13.90;9.20;;;;;;;7.14;44.62;102802.41;5033399;28;20552;-69
2021/04/13 09:53:21;;;;;;;19.30;10.02;;;;;;;6.84;44.51;102812.66;5051867;28;20049;-68
2021/04/13 09:56:28;;;;;;;18.60;8.85;;;;;;;7.02;45.71;102800.75;5048729;28;20064;-73
2021/04/13 09:59:10;;;;;;;14.60;8.32;;;;;;;7.21;44.15;102792.16;5051265;28;20064;-70
2021/04/13 10:02:53;;;;;;;18.50;9.77;;;;;;;7.17;44.16;102790.09;5006310;28;20413;-68
2021/04/13 10:05:32;;;;;;;15.27;9.20;;;;;;;7.25;44.48;102784.28;5008962;28;20081;-67
2021/04/13 10:08:10;;;;;;;16.30;10.18;;;;;;;7.25;44.88;102790.59;4993620;28;20520;-70
2021/04/13 10:11:09;;;;;;;21.48;10.20;;;;;;;7.41;45.47;102786.28;5008102;28;20046;-70
2021/04/13 10:14:14;;;;;;;15.32;9.57;;;;;;;7.75;46.42;102785.31;5008571;28;20432;-69
2021/04/13 10:17:17;;;;;;;23.65;10.60;;;;;;;7.77;45.32;102785.91;5012858;28;20157;-67
2021/04/13 10:20:08;;;;;;;15.00;8.82;;;;;;;7.78;43.54;102787.56;5008020;28;20064;-70
2021/04/13 10:23:00;;;;;;;17.75;8.98;;;;;;;7.55;43.88;102782.19;4988338;28;20124;-71
2021/04/13 10:25:58;;;;;;;14.23;8.20;;;;;;;7.60;44.19;102776.81;5055529;28;20148;-72
2021/04/13 10:28:56;;;;;;;14.85;8.63;;;;;;;7.78;43.32;102768.38;5055399;28;20056;-68
2021/04/13 10:35:59;;;;;;;13.68;8.13;;;;;;;7.94;42.37;102773.91;5035253;28;20498;-70
2021/04/13 10:38:56;;;;;;;13.15;7.97;;;;;;;7.80;42.46;102783.50;5050665;28;20045;-71
2021/04/13 10:42:01;;;;;;;12.65;8.45;;;;;;;8.04;42.43;102769.69;5017261;28;20052;-66
2021/04/13 10:44:56;;;;;;;13.82;9.18;;;;;;;7.96;42.31;102766.28;5035208;28;20049;-71
2021/04/13 10:51:55;;;;;;;14.35;9.38;;;;;;;7.86;43.91;102768.00;4974062;28;20058;-69
2021/04/13 10:54:50;;;;;;;18.65;9.90;;;;;;;7.94;43.42;102771.16;4972540;28;20046;-68
2021/04/13 10:57:38;;;;;;;12.88;8.65;;;;;;;8.19;44.05;102756.22;4973413;28;20050;-71
2021/04/13 11:00:20;;;;;;;13.85;9.20;;;;;;;8.10;42.66;102769.53;4988179;28;20074;-67
2021/04/13 11:03:18;;;;;;;11.50;7.80;;;;;;;7.94;42.34;102749.22;4989249;28;20046;-68
2021/04/13 11:06:36;;;;;;;12.68;7.78;;;;;;;8.23;40.81;102751.91;5007508;28;20086;-67
2021/04/13 11:09:22;;;;;;;11.93;6.45;;;;;;;8.38;40.56;102757.69;4993030;28;20062;-70
2021/04/13 11:12:28;;;;;;;11.23;7.05;;;;;;;8.52;40.47;102745.28;4992037;28;20050;-68
2021/04/13 11:15:21;;;;;;;11.37;7.93;;;;;;;8.66;41.22;102741.13;4992363;28;20128;-70
2021/04/13 11:17:52;;;;;;;14.85;7.25;;;;;;;8.86;41.36;102742.25;4976781;28;20051;-68
2021/04/13 11:20:41;;;;;;;10.32;6.05;;;;;;;8.58;38.30;102741.53;4992813;28;20367;-69
2021/04/13 11:23:39;;;;;;;10.52;6.43;;;;;;;8.62;38.81;102738.03;4990371;28;20099;-68
2021/04/13 11:26:15;;;;;;;11.70;6.97;;;;;;;8.73;38.90;102726.13;4971242;28;20418;-70
2021/04/13 11:29:22;;;;;;;11.23;6.10;;;;;;;8.46;38.83;102729.81;4991977;28;20154;-69
2021/04/13 11:32:10;;;;;;;10.77;5.55;;;;;;;8.68;38.31;102726.03;4991212;28;20058;-68
2021/04/13 11:34:57;;;;;;;9.02;5.88;;;;;;;8.72;38.73;102738.19;5005016;28;20068;-71
2021/04/13 11:37:53;;;;;;;11.25;5.90;;;;;;;8.72;37.86;102721.72;5012102;28;20061;-69
2021/04/13 11:40:46;;;;;;;13.35;6.78;;;;;;;8.76;39.78;102722.88;5011814;28;20058;-72
2021/04/13 11:43:23;;;;;;;11.48;6.35;;;;;;;8.73;39.52;102720.66;4995035;28;20046;-73
2021/04/13 11:50:35;;;;;;;11.18;5.78;;;;;;;8.55;39.38;102726.41;5035755;28;20452;-71
2021/04/13 11:53:26;;;;;;;10.70;6.05;;;;;;;8.81;39.49;102719.34;5053655;28;20045;-71
2021/04/13 11:55:54;;;;;;;9.70;5.38;;;;;;;8.74;38.86;102702.22;5036173;28;20407;-72
2021/04/13 11:58:33;;;;;;;8.60;5.05;;;;;;;8.67;39.06;102713.41;5019266;28;20125;-70
2021/04/13 12:05:49;;;;;;;10.63;4.97;;;;;;;8.76;37.71;102708.31;5052402;28;20053;-69
2021/04/13 12:08:37;;;;;;;16.35;6.53;;;;;;;8.88;37.06;102703.53;5019321;28;20356;-71
2021/04/13 12:11:08;;;;;;;7.10;4.18;;;;;;;8.75;36.03;102701.97;5016976;28;20044;-71
2021/04/13 12:13:40;;;;;;;9.93;3.70;;;;;;;8.88;34.10;102700.78;5053044;28;20128;-70
2021/04/13 12:16:17;;;;;;;7.50;3.75;;;;;;;8.82;34.98;102693.56;5035568;28;20053;-69
2021/04/13 12:19:10;;;;;;;10.90;4.20;;;;;;;9.20;35.06;102703.66;5054270;28;20483;-69
2021/04/13 12:22:03;;;;;;;12.38;4.82;;;;;;;9.44;35.99;102683.06;5053139;28;20060;-70
2021/04/13 12:25:00;;;;;;;9.23;4.97;;;;;;;9.70;35.94;102696.00;5030519;28;20049;-67
2021/04/13 12:27:30;;;;;;;10.77;5.28;;;;;;;9.44;36.87;102692.16;5036114;28;20053;-71
2021/04/13 12:30:29;;;;;;;8.80;4.63;;;;;;;9.34;36.48;102697.53;5054354;28;20064;-67
2021/04/13 12:33:04;;;;;;;7.25;4.38;;;;;;;9.11;35.17;102692.28;5053676;28;20041;-69
2021/04/13 12:35:47;;;;;;;8.93;3.90;;;;;;;9.25;34.29;102695.47;5051224;28;20049;-70
2021/04/13 12:38:42;;;;;;;10.48;4.60;;;;;;;9.26;34.89;102688.91;5052537;28;20045;-69
2021/04/13 12:41:33;;;;;;;8.20;4.95;;;;;;;9.05;37.05;102696.88;5051361;28;20056;-68
2021/04/13 12:44:18;;;;;;;6.78;4.32;;;;;;;9.30;37.06;102681.78;5050547;28;20060;-67
2021/04/13 12:51:03;;;;;;;10.95;4.93;;;;;;;9.27;36.24;102674.06;5051886;28;20064;-64
2021/04/13 12:53:41;;;;;;;9.77;5.10;;;;;;;9.31;36.60;102677.97;5052304;28;20049;-66
2021/04/13 12:56:27;;;;;;;8.27;4.85;;;;;;;9.35;35.74;102674.44;5047186;28;20395;-68
2021/04/13 12:59:13;;;;;;;7.93;4.28;;;;;;;9.29;35.76;102661.72;5037095;28;20059;-63
2021/04/13 13:06:18;;;;;;;9.70;4.40;;;;;;;9.45;34.66;102657.22;5051358;28;20529;-69
2021/04/13 13:09:06;;;;;;;9.85;5.10;;;;;;;9.45;34.71;102669.03;5034907;28;20045;-65
2021/04/13 13:11:34;;;;;;;13.77;4.72;;;;;;;9.30;34.99;102663.38;5016917;28;20056;-67
2021/04/13 13:14:21;;;;;;;9.32;4.50;;;;;;;9.46;35.19;102654.22;5044103;28;20064;-65
2021/04/13 13:16:54;;;;;;;9.60;4.75;;;;;;;9.48;34.95;102645.69;5033263;28;20052;-67
2021/04/13 13:19:45;;;;;;;9.40;4.38;;;;;;;9.97;34.30;102639.81;5001358;28;20060;-64
2021/04/13 13:22:27;;;;;;;9.50;5.03;;;;;;;9.89;34.07;102645.00;5000061;28;20056;-69
2021/04/13 13:25:18;;;;;;;8.80;4.47;;;;;;;9.72;34.04;102645.13;5058193;28;20060;-68
2021/04/13 13:27:45;;;;;;;8.98;4.28;;;;;;;9.91;33.41;102640.06;5050022;28;20056;-70
2021/04/13 13:30:17;;;;;;;10.68;5.28;;;;;;;10.09;32.75;102650.72;5050443;28;20064;-72
2021/04/13 13:32:44;;;;;;;15.85;10.13;;;;;;;9.98;33.97;102638.75;5031399;28;20045;-69
2021/04/13 13:35:20;;;;;;;10.13;5.28;;;;;;;10.01;32.84;102653.91;5051709;28;20480;-69
2021/04/13 13:37:53;;;;;;;7.03;4.32;;;;;;;9.67;32.65;102638.75;5052238;28;20056;-70
2021/04/13 13:40:27;;;;;;;9.95;4.50;;;;;;;9.75;32.59;102644.59;5050304;28;20461;-70
2021/04/13 13:42:56;;;;;;;9.02;3.95;;;;;;;9.57;32.83;102641.41;5049532;28;20053;-70
2021/04/13 13:45:46;;;;;;;8.00;4.28;;;;;;;9.72;32.13;102641.53;5035955;28;20068;-69
2021/04/13 13:48:21;;;;;;;8.50;4.20;;;;;;;10.10;31.57;102628.41;5033883;28;20052;-70
2021/04/13 13:51:02;;;;;;;8.15;4.32;;;;;;;10.13;31.40;102629.78;5034022;28;20049;-73
2021/04/13 13:53:31;;;;;;;8.90;4.47;;;;;;;10.15;31.45;102635.88;5051202;28;20052;-69
2021/04/13 13:56:04;;;;;;;9.80;4.80;;;;;;;9.93;33.10;102635.97;5037207;28;20075;-70
2021/04/13 13:58:37;;;;;;;10.60;5.60;;;;;;;9.87;34.84;102628.75;5053459;28;20400;-73
2021/04/13 14:01:06;;;;;;;13.77;5.70;;;;;;;10.31;34.63;102612.03;5037572;28;20064;-68
2021/04/13 14:03:36;;;;;;;9.18;5.40;;;;;;;10.82;34.17;102601.03;5055700;28;20056;-73
2021/04/13 14:06:05;;;;;;;9.90;5.22;;;;;;;10.68;33.52;102616.41;5055297;28;20041;-69
2021/04/13 14:08:35;;;;;;;9.63;5.35;;;;;;;10.29;34.11;102611.50;5055376;28;20037;-74
2021/04/13 14:11:12;;;;;;;11.38;5.10;;;;;;;9.80;33.64;102610.78;5037336;28;20441;-74
2021/04/13 14:13:58;;;;;;;10.25;4.55;;;;;;;9.91;33.95;102618.88;5054535;28;20053;-72
2021/04/13 14:21:13;;;;;;;13.10;5.57;;;;;;;10.11;34.31;102604.47;5055411;28;20045;-71
2021/04/13 14:23:41;;;;;;;;;;;;;;;10.04;34.55;102595.59;5013851;28;20053;-67
2021/04/13 14:26:10;;;;;;;;;;;;;;;9.89;35.34;102584.44;5013950;28;19932;-73
2021/04/13 14:28:36;;;;;;;;;;;;;;;10.15;34.70;102580.81;5013692;28;19928;-72